sensor_id;sensor_type;location;lat;lon;timestamp;P1;durP1;ratioP1;P2;durP2;ratioP2
16824;SDS011;8529;48.108;-1.706;2023-04-03T00:02:02;6.90;;;3.27;;
16824;SDS011;8529;48.108;-1.706;2023-04-03T00:04:28;7.18;;;3.42;;
16824;SDS011;8529;48.108;-1.706;2023-04-03T00:06:55;7.20;;;3.80;;
16824;SDS011;8529;48.108;-1.706;2023-04-03T00:09:22;6.70;;;3.72;;
16824;SDS011;8529;48.108;-1.706;2023-04-03T00:11:51;7.13;;;3.65;;
16824;SDS011;8529;48.108;-1.706;2023-04-03T00:14:17;7.43;;;3.43;;
16824;SDS011;8529;48.108;-1.706;2023-04-03T00:16:44;9.32;;;3.42;;
16824;SDS011;8529;48.108;-1.706;2023-04-03T00:19:11;11.27;;;3.47;;
16824;SDS011;8529;48.108;-1.706;2023-04-03T00:21:38;4.20;;;2.85;;
16824;SDS011;8529;48.108;-1.706;2023-04-03T00:24:06;7.32;;;3.38;;
16824;SDS011;8529;48.108;-1.706;2023-04-03T00:26:33;6.37;;;2.73;;
16824;SDS011;8529;48.108;-1.706;2023-04-03T00:29:07;7.13;;;3.50;;
16824;SDS011;8529;48.108;-1.706;2023-04-03T00:31:33;9.40;;;3.58;;
16824;SDS011;8529;48.108;-1.706;2023-04-03T00:34:06;5.63;;;2.97;;
16824;SDS011;8529;48.108;-1.706;2023-04-03T00:36:34;8.97;;;3.30;;
16824;SDS011;8529;48.108;-1.706;2023-04-03T00:39:03;5.03;;;2.67;;
16824;SDS011;8529;48.108;-1.706;2023-04-03T00:41:31;8.30;;;3.03;;
16824;SDS011;8529;48.108;-1.706;2023-04-03T00:43:58;10.37;;;3.70;;
16824;SDS011;8529;48.108;-1.706;2023-04-03T00:46:26;9.80;;;3.80;;
16824;SDS011;8529;48.108;-1.706;2023-04-03T00:48:53;6.73;;;3.20;;
16824;SDS011;8529;48.108;-1.706;2023-04-03T00:51:22;5.80;;;3.30;;
16824;SDS011;8529;48.108;-1.706;2023-04-03T00:53:51;5.63;;;3.73;;
16824;SDS011;8529;48.108;-1.706;2023-04-03T00:56:24;7.83;;;3.50;;
16824;SDS011;8529;48.108;-1.706;2023-04-03T00:58:56;8.73;;;3.60;;
16824;SDS011;8529;48.108;-1.706;2023-04-03T01:01:27;9.40;;;3.30;;
16824;SDS011;8529;48.108;-1.706;2023-04-03T01:03:55;6.53;;;3.23;;
16824;SDS011;8529;48.108;-1.706;2023-04-03T01:06:26;9.23;;;3.70;;
16824;SDS011;8529;48.108;-1.706;2023-04-03T01:08:56;8.30;;;3.57;;
16824;SDS011;8529;48.108;-1.706;2023-04-03T01:11:23;9.23;;;3.40;;
16824;SDS011;8529;48.108;-1.706;2023-04-03T01:13:51;7.57;;;2.93;;
16824;SDS011;8529;48.108;-1.706;2023-04-03T01:16:18;8.43;;;3.67;;
16824;SDS011;8529;48.108;-1.706;2023-04-03T01:18:47;6.27;;;3.10;;
16824;SDS011;8529;48.108;-1.706;2023-04-03T01:24:22;8.63;;;3.53;;
16824;SDS011;8529;48.108;-1.706;2023-04-03T01:26:56;5.77;;;3.20;;
16824;SDS011;8529;48.108;-1.706;2023-04-03T01:29:24;9.50;;;3.40;;
16824;SDS011;8529;48.108;-1.706;2023-04-03T01:31:52;7.83;;;3.27;;
16824;SDS011;8529;48.108;-1.706;2023-04-03T01:34:20;5.97;;;3.23;;
16824;SDS011;8529;48.108;-1.706;2023-04-03T01:36:47;8.83;;;3.60;;
16824;SDS011;8529;48.108;-1.706;2023-04-03T01:39:15;10.47;;;3.37;;
16824;SDS011;8529;48.108;-1.706;2023-04-03T01:41:42;8.37;;;3.10;;
16824;SDS011;8529;48.108;-1.706;2023-04-03T01:44:10;9.60;;;2.90;;
16824;SDS011;8529;48.108;-1.706;2023-04-03T01:46:37;11.83;;;3.10;;
16824;SDS011;8529;48.108;-1.706;2023-04-03T01:49:05;8.67;;;4.00;;
16824;SDS011;8529;48.108;-1.706;2023-04-03T01:51:32;7.07;;;2.80;;
16824;SDS011;8529;48.108;-1.706;2023-04-03T01:53:59;9.47;;;3.03;;
16824;SDS011;8529;48.108;-1.706;2023-04-03T01:56:26;11.03;;;3.20;;
16824;SDS011;8529;48.108;-1.706;2023-04-03T01:58:53;11.03;;;3.30;;
16824;SDS011;8529;48.108;-1.706;2023-04-03T02:01:20;8.07;;;3.10;;
16824;SDS011;8529;48.108;-1.706;2023-04-03T02:03:47;11.00;;;3.37;;
16824;SDS011;8529;48.108;-1.706;2023-04-03T02:06:15;5.97;;;3.03;;
16824;SDS011;8529;48.108;-1.706;2023-04-03T02:08:42;8.33;;;3.53;;
16824;SDS011;8529;48.108;-1.706;2023-04-03T02:11:09;7.30;;;3.20;;
16824;SDS011;8529;48.108;-1.706;2023-04-03T02:13:35;10.67;;;3.50;;
16824;SDS011;8529;48.108;-1.706;2023-04-03T02:16:06;7.63;;;3.07;;
16824;SDS011;8529;48.108;-1.706;2023-04-03T02:18:33;8.30;;;3.33;;
16824;SDS011;8529;48.108;-1.706;2023-04-03T02:21:00;8.23;;;2.80;;
16824;SDS011;8529;48.108;-1.706;2023-04-03T02:23:28;8.77;;;3.20;;
16824;SDS011;8529;48.108;-1.706;2023-04-03T02:26:02;10.40;;;3.70;;
16824;SDS011;8529;48.108;-1.706;2023-04-03T02:28:30;6.23;;;3.07;;
16824;SDS011;8529;48.108;-1.706;2023-04-03T02:30:57;11.43;;;3.53;;
16824;SDS011;8529;48.108;-1.706;2023-04-03T02:33:24;7.67;;;3.50;;
16824;SDS011;8529;48.108;-1.706;2023-04-03T02:35:52;9.43;;;3.10;;
16824;SDS011;8529;48.108;-1.706;2023-04-03T02:38:19;10.83;;;3.10;;
16824;SDS011;8529;48.108;-1.706;2023-04-03T02:40:48;13.43;;;3.40;;
16824;SDS011;8529;48.108;-1.706;2023-04-03T02:43:16;8.80;;;3.00;;
16824;SDS011;8529;48.108;-1.706;2023-04-03T02:45:43;11.93;;;3.43;;
16824;SDS011;8529;48.108;-1.706;2023-04-03T02:48:10;9.83;;;3.87;;
16824;SDS011;8529;48.108;-1.706;2023-04-03T02:50:37;7.33;;;2.90;;
16824;SDS011;8529;48.108;-1.706;2023-04-03T02:53:05;10.77;;;2.67;;
16824;SDS011;8529;48.108;-1.706;2023-04-03T02:55:31;9.47;;;3.30;;
16824;SDS011;8529;48.108;-1.706;2023-04-03T02:58:00;6.63;;;3.57;;
16824;SDS011;8529;48.108;-1.706;2023-04-03T03:00:27;11.73;;;3.70;;
16824;SDS011;8529;48.108;-1.706;2023-04-03T03:02:53;8.13;;;3.10;;
16824;SDS011;8529;48.108;-1.706;2023-04-03T03:05:20;7.20;;;3.00;;
16824;SDS011;8529;48.108;-1.706;2023-04-03T03:07:47;9.37;;;3.50;;
16824;SDS011;8529;48.108;-1.706;2023-04-03T03:10:14;7.27;;;2.90;;
16824;SDS011;8529;48.108;-1.706;2023-04-03T03:12:41;10.40;;;2.90;;
16824;SDS011;8529;48.108;-1.706;2023-04-03T03:15:10;13.30;;;2.90;;
16824;SDS011;8529;48.108;-1.706;2023-04-03T03:17:37;18.07;;;3.27;;
16824;SDS011;8529;48.108;-1.706;2023-04-03T03:20:05;9.63;;;3.47;;
16824;SDS011;8529;48.108;-1.706;2023-04-03T03:22:33;9.63;;;3.17;;
16824;SDS011;8529;48.108;-1.706;2023-04-03T03:25:00;11.50;;;3.37;;
16824;SDS011;8529;48.108;-1.706;2023-04-03T03:27:28;8.93;;;3.00;;
16824;SDS011;8529;48.108;-1.706;2023-04-03T03:29:55;8.50;;;3.47;;
16824;SDS011;8529;48.108;-1.706;2023-04-03T03:32:23;8.33;;;3.17;;
16824;SDS011;8529;48.108;-1.706;2023-04-03T03:34:50;10.17;;;3.07;;
16824;SDS011;8529;48.108;-1.706;2023-04-03T03:37:17;7.03;;;2.70;;
16824;SDS011;8529;48.108;-1.706;2023-04-03T03:39:44;11.10;;;3.10;;
16824;SDS011;8529;48.108;-1.706;2023-04-03T03:42:11;11.17;;;3.17;;
16824;SDS011;8529;48.108;-1.706;2023-04-03T03:44:38;11.03;;;2.80;;
16824;SDS011;8529;48.108;-1.706;2023-04-03T03:47:05;9.10;;;2.40;;
16824;SDS011;8529;48.108;-1.706;2023-04-03T03:49:36;8.37;;;2.70;;
16824;SDS011;8529;48.108;-1.706;2023-04-03T03:52:03;6.07;;;2.87;;
16824;SDS011;8529;48.108;-1.706;2023-04-03T03:54:30;11.37;;;3.03;;
16824;SDS011;8529;48.108;-1.706;2023-04-03T03:56:56;10.87;;;3.00;;
16824;SDS011;8529;48.108;-1.706;2023-04-03T03:59:23;6.77;;;2.70;;
16824;SDS011;8529;48.108;-1.706;2023-04-03T04:01:50;7.27;;;2.53;;
16824;SDS011;8529;48.108;-1.706;2023-04-03T04:04:17;7.03;;;3.03;;
16824;SDS011;8529;48.108;-1.706;2023-04-03T04:06:45;11.23;;;3.00;;
16824;SDS011;8529;48.108;-1.706;2023-04-03T04:09:12;9.20;;;3.13;;
16824;SDS011;8529;48.108;-1.706;2023-04-03T04:11:39;7.73;;;2.63;;
16824;SDS011;8529;48.108;-1.706;2023-04-03T04:14:06;7.07;;;2.63;;
16824;SDS011;8529;48.108;-1.706;2023-04-03T04:16:35;8.60;;;3.60;;
16824;SDS011;8529;48.108;-1.706;2023-04-03T04:19:02;8.93;;;3.53;;
16824;SDS011;8529;48.108;-1.706;2023-04-03T04:21:29;8.20;;;2.93;;
16824;SDS011;8529;48.108;-1.706;2023-04-03T04:23:57;5.50;;;2.43;;
16824;SDS011;8529;48.108;-1.706;2023-04-03T04:26:24;9.30;;;3.00;;
16824;SDS011;8529;48.108;-1.706;2023-04-03T04:28:51;6.53;;;3.07;;
16824;SDS011;8529;48.108;-1.706;2023-04-03T04:31:17;7.23;;;2.60;;
16824;SDS011;8529;48.108;-1.706;2023-04-03T04:33:44;7.53;;;2.73;;
16824;SDS011;8529;48.108;-1.706;2023-04-03T04:36:11;10.63;;;2.87;;
16824;SDS011;8529;48.108;-1.706;2023-04-03T04:38:39;8.00;;;2.70;;
16824;SDS011;8529;48.108;-1.706;2023-04-03T04:41:07;6.47;;;2.80;;
16824;SDS011;8529;48.108;-1.706;2023-04-03T04:43:34;9.07;;;3.50;;
16824;SDS011;8529;48.108;-1.706;2023-04-03T04:46:02;9.07;;;2.77;;
16824;SDS011;8529;48.108;-1.706;2023-04-03T04:48:30;7.10;;;3.33;;
16824;SDS011;8529;48.108;-1.706;2023-04-03T04:50:57;6.83;;;2.80;;
16824;SDS011;8529;48.108;-1.706;2023-04-03T04:53:23;8.17;;;3.10;;
16824;SDS011;8529;48.108;-1.706;2023-04-03T04:55:50;6.90;;;3.00;;
16824;SDS011;8529;48.108;-1.706;2023-04-03T04:58:19;9.27;;;2.67;;
16824;SDS011;8529;48.108;-1.706;2023-04-03T05:00:46;10.03;;;3.10;;
16824;SDS011;8529;48.108;-1.706;2023-04-03T05:03:13;7.27;;;3.33;;
16824;SDS011;8529;48.108;-1.706;2023-04-03T05:05:40;9.77;;;3.00;;
16824;SDS011;8529;48.108;-1.706;2023-04-03T05:08:07;8.27;;;2.90;;
16824;SDS011;8529;48.108;-1.706;2023-04-03T05:10:34;8.03;;;3.27;;
16824;SDS011;8529;48.108;-1.706;2023-04-03T05:13:01;11.60;;;3.77;;
16824;SDS011;8529;48.108;-1.706;2023-04-03T05:15:29;9.87;;;2.87;;
16824;SDS011;8529;48.108;-1.706;2023-04-03T05:17:56;8.73;;;2.80;;
16824;SDS011;8529;48.108;-1.706;2023-04-03T05:20:23;5.00;;;2.50;;
16824;SDS011;8529;48.108;-1.706;2023-04-03T05:22:50;7.63;;;3.00;;
16824;SDS011;8529;48.108;-1.706;2023-04-03T05:25:17;8.53;;;2.83;;
16824;SDS011;8529;48.108;-1.706;2023-04-03T05:27:44;9.17;;;3.33;;
16824;SDS011;8529;48.108;-1.706;2023-04-03T05:30:11;9.37;;;2.93;;
16824;SDS011;8529;48.108;-1.706;2023-04-03T05:32:40;9.63;;;3.50;;
16824;SDS011;8529;48.108;-1.706;2023-04-03T05:35:07;7.50;;;3.07;;
16824;SDS011;8529;48.108;-1.706;2023-04-03T05:37:35;7.13;;;3.23;;
16824;SDS011;8529;48.108;-1.706;2023-04-03T05:40:03;7.63;;;3.17;;
16824;SDS011;8529;48.108;-1.706;2023-04-03T05:42:30;7.50;;;3.00;;
16824;SDS011;8529;48.108;-1.706;2023-04-03T05:44:57;7.40;;;3.07;;
16824;SDS011;8529;48.108;-1.706;2023-04-03T05:47:24;6.67;;;3.30;;
16824;SDS011;8529;48.108;-1.706;2023-04-03T05:49:52;7.63;;;3.47;;
16824;SDS011;8529;48.108;-1.706;2023-04-03T05:52:20;8.43;;;3.90;;
16824;SDS011;8529;48.108;-1.706;2023-04-03T05:54:49;7.10;;;3.63;;
16824;SDS011;8529;48.108;-1.706;2023-04-03T05:57:16;11.70;;;3.60;;
16824;SDS011;8529;48.108;-1.706;2023-04-03T05:59:43;6.50;;;3.43;;
16824;SDS011;8529;48.108;-1.706;2023-04-03T06:02:11;10.47;;;3.60;;
16824;SDS011;8529;48.108;-1.706;2023-04-03T06:04:39;5.87;;;3.10;;
16824;SDS011;8529;48.108;-1.706;2023-04-03T06:07:08;11.47;;;3.80;;
16824;SDS011;8529;48.108;-1.706;2023-04-03T06:09:37;7.57;;;3.50;;
16824;SDS011;8529;48.108;-1.706;2023-04-03T06:12:04;8.87;;;3.83;;
16824;SDS011;8529;48.108;-1.706;2023-04-03T06:14:31;8.77;;;4.30;;
16824;SDS011;8529;48.108;-1.706;2023-04-03T06:16:58;8.60;;;3.40;;
16824;SDS011;8529;48.108;-1.706;2023-04-03T06:19:26;8.17;;;3.90;;
16824;SDS011;8529;48.108;-1.706;2023-04-03T06:21:53;9.17;;;4.27;;
16824;SDS011;8529;48.108;-1.706;2023-04-03T06:24:22;8.10;;;3.40;;
16824;SDS011;8529;48.108;-1.706;2023-04-03T06:26:50;7.30;;;3.60;;
16824;SDS011;8529;48.108;-1.706;2023-04-03T06:29:17;9.33;;;4.50;;
16824;SDS011;8529;48.108;-1.706;2023-04-03T06:31:44;10.33;;;5.10;;
16824;SDS011;8529;48.108;-1.706;2023-04-03T06:34:11;9.17;;;4.30;;
16824;SDS011;8529;48.108;-1.706;2023-04-03T06:36:38;8.27;;;4.10;;
16824;SDS011;8529;48.108;-1.706;2023-04-03T06:39:06;8.50;;;3.83;;
16824;SDS011;8529;48.108;-1.706;2023-04-03T06:41:34;6.87;;;4.13;;
16824;SDS011;8529;48.108;-1.706;2023-04-03T06:44:01;8.93;;;4.50;;
16824;SDS011;8529;48.108;-1.706;2023-04-03T06:46:28;7.77;;;5.20;;
16824;SDS011;8529;48.108;-1.706;2023-04-03T06:48:55;7.97;;;5.63;;
16824;SDS011;8529;48.108;-1.706;2023-04-03T06:51:22;7.87;;;4.10;;
16824;SDS011;8529;48.108;-1.706;2023-04-03T06:53:51;8.53;;;4.53;;
16824;SDS011;8529;48.108;-1.706;2023-04-03T06:56:19;10.37;;;4.03;;
16824;SDS011;8529;48.108;-1.706;2023-04-03T06:58:48;9.50;;;4.70;;
16824;SDS011;8529;48.108;-1.706;2023-04-03T07:01:16;5.63;;;4.60;;
16824;SDS011;8529;48.108;-1.706;2023-04-03T07:03:44;7.97;;;4.30;;
16824;SDS011;8529;48.108;-1.706;2023-04-03T07:06:13;6.90;;;4.17;;
16824;SDS011;8529;48.108;-1.706;2023-04-03T07:08:41;9.40;;;4.73;;
16824;SDS011;8529;48.108;-1.706;2023-04-03T07:11:09;6.57;;;4.33;;
16824;SDS011;8529;48.108;-1.706;2023-04-03T07:13:37;9.53;;;5.03;;
16824;SDS011;8529;48.108;-1.706;2023-04-03T07:16:06;8.37;;;4.90;;
16824;SDS011;8529;48.108;-1.706;2023-04-03T07:18:35;6.83;;;5.07;;
16824;SDS011;8529;48.108;-1.706;2023-04-03T07:21:02;6.43;;;4.33;;
16824;SDS011;8529;48.108;-1.706;2023-04-03T07:23:29;7.20;;;4.50;;
16824;SDS011;8529;48.108;-1.706;2023-04-03T07:25:56;5.57;;;4.67;;
16824;SDS011;8529;48.108;-1.706;2023-04-03T07:28:23;8.47;;;5.10;;
16824;SDS011;8529;48.108;-1.706;2023-04-03T07:30:51;8.33;;;5.20;;
16824;SDS011;8529;48.108;-1.706;2023-04-03T07:33:21;11.37;;;5.13;;
16824;SDS011;8529;48.108;-1.706;2023-04-03T07:35:49;7.07;;;4.63;;
16824;SDS011;8529;48.108;-1.706;2023-04-03T07:38:16;9.37;;;5.30;;
16824;SDS011;8529;48.108;-1.706;2023-04-03T07:40:45;6.70;;;4.97;;
16824;SDS011;8529;48.108;-1.706;2023-04-03T07:43:13;12.43;;;5.70;;
16824;SDS011;8529;48.108;-1.706;2023-04-03T07:45:40;10.50;;;5.67;;
16824;SDS011;8529;48.108;-1.706;2023-04-03T07:48:08;10.60;;;5.10;;
16824;SDS011;8529;48.108;-1.706;2023-04-03T07:50:37;7.07;;;4.97;;
16824;SDS011;8529;48.108;-1.706;2023-04-03T07:53:05;8.20;;;5.73;;
16824;SDS011;8529;48.108;-1.706;2023-04-03T07:55:32;6.67;;;5.33;;
16824;SDS011;8529;48.108;-1.706;2023-04-03T07:58:02;8.17;;;5.17;;
16824;SDS011;8529;48.108;-1.706;2023-04-03T08:00:29;9.73;;;5.47;;
16824;SDS011;8529;48.108;-1.706;2023-04-03T08:02:56;8.47;;;5.57;;
16824;SDS011;8529;48.108;-1.706;2023-04-03T08:05:23;10.30;;;5.97;;
16824;SDS011;8529;48.108;-1.706;2023-04-03T08:07:51;13.23;;;5.60;;
16824;SDS011;8529;48.108;-1.706;2023-04-03T08:10:18;7.40;;;5.17;;
16824;SDS011;8529;48.108;-1.706;2023-04-03T08:12:45;10.63;;;5.83;;
16824;SDS011;8529;48.108;-1.706;2023-04-03T08:15:12;10.10;;;6.27;;
16824;SDS011;8529;48.108;-1.706;2023-04-03T08:17:39;8.73;;;6.50;;
16824;SDS011;8529;48.108;-1.706;2023-04-03T08:20:07;10.87;;;6.37;;
16824;SDS011;8529;48.108;-1.706;2023-04-03T08:22:35;12.13;;;6.67;;
16824;SDS011;8529;48.108;-1.706;2023-04-03T08:25:04;9.67;;;6.57;;
16824;SDS011;8529;48.108;-1.706;2023-04-03T08:27:33;11.33;;;6.07;;
16824;SDS011;8529;48.108;-1.706;2023-04-03T08:30:00;10.63;;;6.20;;
16824;SDS011;8529;48.108;-1.706;2023-04-03T08:32:28;11.10;;;6.57;;
16824;SDS011;8529;48.108;-1.706;2023-04-03T08:34:55;8.77;;;6.13;;
16824;SDS011;8529;48.108;-1.706;2023-04-03T08:37:21;9.00;;;6.53;;
16824;SDS011;8529;48.108;-1.706;2023-04-03T08:39:48;11.03;;;5.97;;
16824;SDS011;8529;48.108;-1.706;2023-04-03T08:42:19;12.37;;;5.80;;
16824;SDS011;8529;48.108;-1.706;2023-04-03T08:44:57;11.77;;;6.43;;
16824;SDS011;8529;48.108;-1.706;2023-04-03T08:47:28;10.80;;;7.33;;
16824;SDS011;8529;48.108;-1.706;2023-04-03T08:50:02;12.60;;;6.20;;
16824;SDS011;8529;48.108;-1.706;2023-04-03T08:52:34;13.23;;;6.30;;
16824;SDS011;8529;48.108;-1.706;2023-04-03T08:55:05;8.37;;;6.23;;
16824;SDS011;8529;48.108;-1.706;2023-04-03T08:57:41;7.90;;;6.00;;
16824;SDS011;8529;48.108;-1.706;2023-04-03T09:00:15;7.47;;;5.80;;
16824;SDS011;8529;48.108;-1.706;2023-04-03T09:02:44;11.60;;;6.90;;
16824;SDS011;8529;48.108;-1.706;2023-04-03T09:05:14;8.17;;;6.60;;
16824;SDS011;8529;48.108;-1.706;2023-04-03T09:07:43;10.30;;;6.30;;
16824;SDS011;8529;48.108;-1.706;2023-04-03T09:10:14;8.80;;;6.20;;
16824;SDS011;8529;48.108;-1.706;2023-04-03T09:12:46;11.73;;;6.67;;
16824;SDS011;8529;48.108;-1.706;2023-04-03T09:15:20;11.43;;;7.00;;
16824;SDS011;8529;48.108;-1.706;2023-04-03T09:17:53;10.87;;;6.50;;
16824;SDS011;8529;48.108;-1.706;2023-04-03T09:20:28;9.87;;;6.63;;
16824;SDS011;8529;48.108;-1.706;2023-04-03T09:23:08;10.23;;;6.37;;
16824;SDS011;8529;48.108;-1.706;2023-04-03T09:25:43;8.37;;;6.30;;
16824;SDS011;8529;48.108;-1.706;2023-04-03T09:28:11;10.73;;;7.03;;
16824;SDS011;8529;48.108;-1.706;2023-04-03T09:30:38;10.07;;;6.80;;
16824;SDS011;8529;48.108;-1.706;2023-04-03T09:33:05;12.03;;;7.10;;
16824;SDS011;8529;48.108;-1.706;2023-04-03T09:35:33;11.37;;;6.70;;
16824;SDS011;8529;48.108;-1.706;2023-04-03T09:38:14;14.53;;;6.63;;
16824;SDS011;8529;48.108;-1.706;2023-04-03T09:40:43;9.63;;;6.33;;
16824;SDS011;8529;48.108;-1.706;2023-04-03T09:43:23;12.47;;;7.37;;
16824;SDS011;8529;48.108;-1.706;2023-04-03T09:45:51;9.87;;;6.50;;
16824;SDS011;8529;48.108;-1.706;2023-04-03T09:48:19;11.47;;;7.23;;
16824;SDS011;8529;48.108;-1.706;2023-04-03T09:50:56;11.30;;;6.93;;
16824;SDS011;8529;48.108;-1.706;2023-04-03T09:53:26;9.87;;;6.03;;
16824;SDS011;8529;48.108;-1.706;2023-04-03T09:55:56;10.10;;;6.57;;
16824;SDS011;8529;48.108;-1.706;2023-04-03T09:58:25;11.37;;;6.47;;
16824;SDS011;8529;48.108;-1.706;2023-04-03T10:00:55;10.53;;;6.23;;
16824;SDS011;8529;48.108;-1.706;2023-04-03T10:03:24;11.17;;;6.70;;
16824;SDS011;8529;48.108;-1.706;2023-04-03T10:05:53;11.67;;;6.43;;
16824;SDS011;8529;48.108;-1.706;2023-04-03T10:08:23;12.93;;;6.93;;
16824;SDS011;8529;48.108;-1.706;2023-04-03T10:13:37;11.67;;;6.93;;
16824;SDS011;8529;48.108;-1.706;2023-04-03T10:16:17;13.40;;;7.53;;
16824;SDS011;8529;48.108;-1.706;2023-04-03T10:18:49;11.13;;;6.57;;
16824;SDS011;8529;48.108;-1.706;2023-04-03T10:21:26;13.07;;;7.23;;
16824;SDS011;8529;48.108;-1.706;2023-04-03T10:24:03;12.13;;;6.97;;
16824;SDS011;8529;48.108;-1.706;2023-04-03T10:26:38;14.17;;;7.80;;
16824;SDS011;8529;48.108;-1.706;2023-04-03T10:29:16;12.73;;;7.07;;
16824;SDS011;8529;48.108;-1.706;2023-04-03T10:31:56;9.97;;;6.47;;
16824;SDS011;8529;48.108;-1.706;2023-04-03T10:34:29;13.43;;;7.10;;
16824;SDS011;8529;48.108;-1.706;2023-04-03T10:37:01;10.63;;;6.53;;
16824;SDS011;8529;48.108;-1.706;2023-04-03T10:39:39;10.73;;;6.63;;
16824;SDS011;8529;48.108;-1.706;2023-04-03T10:42:16;11.23;;;6.37;;
16824;SDS011;8529;48.108;-1.706;2023-04-03T10:45:01;11.03;;;6.70;;
16824;SDS011;8529;48.108;-1.706;2023-04-03T10:47:42;12.57;;;7.40;;
16824;SDS011;8529;48.108;-1.706;2023-04-03T10:50:22;12.57;;;6.95;;
16824;SDS011;8529;48.108;-1.706;2023-04-03T10:52:57;11.57;;;7.10;;
16824;SDS011;8529;48.108;-1.706;2023-04-03T10:55:31;11.17;;;6.83;;
16824;SDS011;8529;48.108;-1.706;2023-04-03T10:58:02;10.80;;;6.67;;
16824;SDS011;8529;48.108;-1.706;2023-04-03T11:00:35;13.25;;;7.35;;
16824;SDS011;8529;48.108;-1.706;2023-04-03T11:03:06;10.70;;;6.43;;
16824;SDS011;8529;48.108;-1.706;2023-04-03T11:05:39;11.80;;;7.27;;
16824;SDS011;8529;48.108;-1.706;2023-04-03T11:08:11;10.77;;;6.77;;
16824;SDS011;8529;48.108;-1.706;2023-04-03T11:10:48;11.90;;;6.83;;
16824;SDS011;8529;48.108;-1.706;2023-04-03T11:13:17;12.40;;;7.65;;
16824;SDS011;8529;48.108;-1.706;2023-04-03T11:15:50;12.67;;;7.37;;
16824;SDS011;8529;48.108;-1.706;2023-04-03T11:18:21;12.90;;;7.80;;
16824;SDS011;8529;48.108;-1.706;2023-04-03T11:21:00;10.55;;;6.88;;
16824;SDS011;8529;48.108;-1.706;2023-04-03T11:23:32;11.38;;;7.15;;
16824;SDS011;8529;48.108;-1.706;2023-04-03T11:26:07;10.38;;;6.75;;
16824;SDS011;8529;48.108;-1.706;2023-04-03T11:28:36;11.73;;;7.82;;
16824;SDS011;8529;48.108;-1.706;2023-04-03T11:31:08;13.40;;;7.72;;
16824;SDS011;8529;48.108;-1.706;2023-04-03T11:33:44;12.98;;;7.45;;
16824;SDS011;8529;48.108;-1.706;2023-04-03T11:36:18;13.13;;;7.75;;
16824;SDS011;8529;48.108;-1.706;2023-04-03T11:38:50;11.93;;;7.57;;
16824;SDS011;8529;48.108;-1.706;2023-04-03T11:41:24;12.15;;;7.70;;
16824;SDS011;8529;48.108;-1.706;2023-04-03T11:43:57;13.23;;;8.18;;
16824;SDS011;8529;48.108;-1.706;2023-04-03T11:55:41;11.95;;;7.85;;
16824;SDS011;8529;48.108;-1.706;2023-04-03T11:58:14;12.93;;;7.55;;
16824;SDS011;8529;48.108;-1.706;2023-04-03T12:09:33;11.00;;;7.03;;
16824;SDS011;8529;48.108;-1.706;2023-04-03T12:12:28;9.82;;;7.15;;
16824;SDS011;8529;48.108;-1.706;2023-04-03T12:15:20;9.45;;;6.45;;
16824;SDS011;8529;48.108;-1.706;2023-04-03T12:18:31;9.80;;;6.53;;
16824;SDS011;8529;48.108;-1.706;2023-04-03T12:21:08;11.70;;;7.22;;
16824;SDS011;8529;48.108;-1.706;2023-04-03T12:23:58;9.20;;;7.15;;
16824;SDS011;8529;48.108;-1.706;2023-04-03T12:26:34;9.80;;;6.35;;
16824;SDS011;8529;48.108;-1.706;2023-04-03T12:29:10;9.43;;;6.70;;
16824;SDS011;8529;48.108;-1.706;2023-04-03T12:31:43;9.95;;;6.20;;
16824;SDS011;8529;48.108;-1.706;2023-04-03T12:34:27;8.95;;;6.28;;
16824;SDS011;8529;48.108;-1.706;2023-04-03T12:37:08;8.30;;;6.28;;
16824;SDS011;8529;48.108;-1.706;2023-04-03T12:39:54;10.35;;;6.28;;
16824;SDS011;8529;48.108;-1.706;2023-04-03T12:42:40;9.05;;;6.35;;
16824;SDS011;8529;48.108;-1.706;2023-04-03T12:45:27;9.30;;;6.43;;
16824;SDS011;8529;48.108;-1.706;2023-04-03T12:47:54;10.00;;;6.40;;
16824;SDS011;8529;48.108;-1.706;2023-04-03T12:50:22;10.05;;;6.20;;
16824;SDS011;8529;48.108;-1.706;2023-04-03T12:53:00;9.32;;;6.10;;
16824;SDS011;8529;48.108;-1.706;2023-04-03T12:55:32;8.57;;;6.15;;
16824;SDS011;8529;48.108;-1.706;2023-04-03T12:58:12;9.70;;;7.00;;
16824;SDS011;8529;48.108;-1.706;2023-04-03T13:00:41;10.23;;;5.97;;
16824;SDS011;8529;48.108;-1.706;2023-04-03T13:03:18;10.80;;;6.35;;
16824;SDS011;8529;48.108;-1.706;2023-04-03T13:05:48;9.25;;;6.38;;
16824;SDS011;8529;48.108;-1.706;2023-04-03T13:08:15;12.45;;;6.93;;
16824;SDS011;8529;48.108;-1.706;2023-04-03T13:10:49;8.77;;;6.30;;
16824;SDS011;8529;48.108;-1.706;2023-04-03T13:13:21;8.73;;;6.30;;
16824;SDS011;8529;48.108;-1.706;2023-04-03T13:15:48;8.35;;;6.38;;
16824;SDS011;8529;48.108;-1.706;2023-04-03T13:18:26;10.40;;;6.00;;
16824;SDS011;8529;48.108;-1.706;2023-04-03T13:20:57;9.75;;;6.22;;
16824;SDS011;8529;48.108;-1.706;2023-04-03T13:23:28;7.38;;;5.68;;
16824;SDS011;8529;48.108;-1.706;2023-04-03T13:25:57;8.63;;;5.85;;
16824;SDS011;8529;48.108;-1.706;2023-04-03T13:28:28;9.30;;;5.70;;
16824;SDS011;8529;48.108;-1.706;2023-04-03T13:30:59;7.72;;;5.97;;
16824;SDS011;8529;48.108;-1.706;2023-04-03T13:33:30;8.77;;;6.50;;
16824;SDS011;8529;48.108;-1.706;2023-04-03T13:36:03;10.40;;;6.18;;
16824;SDS011;8529;48.108;-1.706;2023-04-03T13:38:32;12.18;;;6.85;;
16824;SDS011;8529;48.108;-1.706;2023-04-03T13:41:03;9.10;;;6.50;;
16824;SDS011;8529;48.108;-1.706;2023-04-03T13:43:46;8.40;;;6.47;;
16824;SDS011;8529;48.108;-1.706;2023-04-03T13:46:23;7.55;;;5.40;;
16824;SDS011;8529;48.108;-1.706;2023-04-03T13:48:53;9.68;;;6.15;;
16824;SDS011;8529;48.108;-1.706;2023-04-03T13:51:22;9.73;;;6.90;;
16824;SDS011;8529;48.108;-1.706;2023-04-03T13:53:52;8.32;;;6.00;;
16824;SDS011;8529;48.108;-1.706;2023-04-03T13:56:24;8.82;;;6.90;;
16824;SDS011;8529;48.108;-1.706;2023-04-03T13:58:57;7.43;;;5.80;;
16824;SDS011;8529;48.108;-1.706;2023-04-03T14:01:38;8.30;;;6.50;;
16824;SDS011;8529;48.108;-1.706;2023-04-03T14:04:12;8.32;;;6.05;;
16824;SDS011;8529;48.108;-1.706;2023-04-03T14:06:42;7.78;;;6.50;;
16824;SDS011;8529;48.108;-1.706;2023-04-03T14:09:09;8.80;;;6.55;;
16824;SDS011;8529;48.108;-1.706;2023-04-03T14:11:37;8.70;;;6.78;;
16824;SDS011;8529;48.108;-1.706;2023-04-03T14:14:09;7.82;;;5.55;;
16824;SDS011;8529;48.108;-1.706;2023-04-03T14:16:40;9.55;;;6.20;;
16824;SDS011;8529;48.108;-1.706;2023-04-03T14:19:11;7.93;;;6.70;;
16824;SDS011;8529;48.108;-1.706;2023-04-03T14:21:43;7.95;;;6.25;;
16824;SDS011;8529;48.108;-1.706;2023-04-03T14:24:10;7.82;;;7.00;;
16824;SDS011;8529;48.108;-1.706;2023-04-03T14:26:38;6.90;;;5.00;;
16824;SDS011;8529;48.108;-1.706;2023-04-03T14:29:06;8.07;;;5.45;;
16824;SDS011;8529;48.108;-1.706;2023-04-03T14:31:33;6.93;;;5.95;;
16824;SDS011;8529;48.108;-1.706;2023-04-03T14:34:00;8.07;;;6.38;;
16824;SDS011;8529;48.108;-1.706;2023-04-03T14:36:27;6.88;;;5.70;;
16824;SDS011;8529;48.108;-1.706;2023-04-03T14:38:55;7.15;;;5.28;;
16824;SDS011;8529;48.108;-1.706;2023-04-03T14:41:23;8.00;;;5.72;;
16824;SDS011;8529;48.108;-1.706;2023-04-03T14:43:52;8.02;;;6.35;;
16824;SDS011;8529;48.108;-1.706;2023-04-03T14:46:19;7.13;;;5.30;;
16824;SDS011;8529;48.108;-1.706;2023-04-03T14:48:50;6.90;;;5.80;;
16824;SDS011;8529;48.108;-1.706;2023-04-03T14:51:16;8.23;;;5.57;;
16824;SDS011;8529;48.108;-1.706;2023-04-03T14:53:44;8.93;;;6.32;;
16824;SDS011;8529;48.108;-1.706;2023-04-03T14:56:11;6.72;;;5.97;;
16824;SDS011;8529;48.108;-1.706;2023-04-03T14:58:40;7.45;;;5.80;;
16824;SDS011;8529;48.108;-1.706;2023-04-03T15:01:09;8.40;;;5.78;;
16824;SDS011;8529;48.108;-1.706;2023-04-03T15:03:39;8.23;;;5.72;;
16824;SDS011;8529;48.108;-1.706;2023-04-03T15:06:06;7.07;;;5.38;;
16824;SDS011;8529;48.108;-1.706;2023-04-03T15:08:34;7.95;;;5.88;;
16824;SDS011;8529;48.108;-1.706;2023-04-03T15:11:02;7.65;;;5.60;;
16824;SDS011;8529;48.108;-1.706;2023-04-03T15:13:29;6.82;;;5.45;;
16824;SDS011;8529;48.108;-1.706;2023-04-03T15:15:56;7.72;;;6.20;;
16824;SDS011;8529;48.108;-1.706;2023-04-03T15:18:25;8.10;;;5.43;;
16824;SDS011;8529;48.108;-1.706;2023-04-03T15:20:53;11.30;;;6.22;;
16824;SDS011;8529;48.108;-1.706;2023-04-03T15:23:21;7.18;;;5.13;;